createdAt,value
2023-04-15T00:00:58.075Z,945.94
2023-04-15T00:03:58.073Z,946.02
2023-04-15T00:06:57.389Z,945.93
2023-04-15T00:09:57.194Z,946.02
2023-04-15T00:12:57.716Z,946.03
2023-04-15T00:15:57.189Z,946.02
2023-04-15T00:18:57.843Z,946.01
2023-04-15T00:21:57.539Z,946.01
2023-04-15T00:24:57.304Z,945.98
2023-04-15T00:27:56.857Z,946.01
2023-04-15T00:30:57.487Z,946.01
2023-04-15T00:33:57.460Z,945.97
2023-04-15T00:36:57.044Z,945.92
2023-04-15T00:39:57.638Z,945.94
2023-04-15T00:42:56.779Z,945.91
2023-04-15T00:45:56.856Z,945.91
2023-04-15T00:48:56.990Z,945.84
2023-04-15T00:51:57.177Z,945.87
2023-04-15T00:54:57.135Z,945.82
2023-04-15T00:57:57.525Z,945.8
2023-04-15T01:00:57.040Z,945.9
2023-04-15T01:03:57.045Z,945.86
2023-04-15T01:06:57.460Z,945.83
2023-04-15T01:09:57.662Z,945.84
2023-04-15T01:12:57.212Z,945.94
2023-04-15T01:15:57.404Z,945.76
2023-04-15T01:18:57.256Z,945.86
2023-04-15T01:21:57.392Z,945.82
2023-04-15T01:24:56.902Z,945.87
2023-04-15T01:27:56.626Z,945.86
2023-04-15T01:30:57.213Z,945.76
2023-04-15T01:33:57.284Z,945.84
2023-04-15T01:36:57.839Z,945.8
2023-04-15T01:39:57.645Z,945.78
2023-04-15T01:42:56.897Z,945.8
2023-04-15T01:45:57.267Z,945.78
2023-04-15T01:48:57.066Z,945.82
2023-04-15T01:51:57.593Z,945.71
2023-04-15T01:54:57.679Z,945.73
2023-04-15T01:57:56.773Z,945.68
2023-04-15T02:00:57.615Z,945.73
2023-04-15T02:03:56.823Z,945.69
2023-04-15T02:06:57.451Z,945.68
2023-04-15T02:09:56.730Z,945.65
2023-04-15T02:12:57.233Z,945.71
2023-04-15T02:15:57.841Z,945.66
2023-04-15T02:18:57.879Z,945.68
2023-04-15T02:21:57.235Z,945.57
2023-04-15T02:24:57.329Z,945.61
2023-04-15T02:27:57.624Z,945.65
2023-04-15T02:30:57.414Z,945.62
2023-04-15T02:33:57.222Z,945.62
2023-04-15T02:36:57.787Z,945.61
2023-04-15T02:39:57.106Z,945.69
2023-04-15T02:42:57.171Z,945.58
2023-04-15T02:45:57.430Z,945.58
2023-04-15T02:48:57.631Z,945.64
2023-04-15T02:51:56.781Z,945.55
2023-04-15T02:54:56.787Z,945.62
2023-04-15T02:57:57.368Z,945.48
2023-04-15T03:00:57.539Z,945.49
2023-04-15T03:03:57.449Z,945.45
2023-04-15T03:06:56.655Z,945.49
2023-04-15T03:09:57.831Z,945.55
2023-04-15T03:12:56.727Z,945.64
2023-04-15T03:15:56.893Z,945.65
2023-04-15T03:18:57.345Z,945.61
2023-04-15T03:21:57.012Z,945.77
2023-04-15T03:24:57.340Z,945.8
2023-04-15T03:27:57.334Z,945.8
2023-04-15T03:30:57.439Z,945.75
2023-04-15T03:33:57.402Z,945.77
2023-04-15T03:36:58.142Z,945.82
2023-04-15T03:39:57.383Z,945.78
2023-04-15T03:42:58.032Z,945.67
2023-04-15T03:45:57.474Z,945.74
2023-04-15T03:48:57.807Z,945.59
2023-04-15T03:51:56.923Z,945.71
2023-04-15T03:54:57.085Z,945.64
2023-04-15T03:57:57.406Z,945.57
2023-04-15T04:00:57.423Z,945.61
2023-04-15T04:03:57.107Z,945.52
2023-04-15T04:06:57.327Z,945.47
2023-04-15T04:09:57.286Z,945.66
2023-04-15T04:12:57.402Z,945.57
2023-04-15T04:15:57.594Z,945.66
2023-04-15T04:18:57.759Z,945.72
2023-04-15T04:21:57.647Z,945.76
2023-04-15T04:24:57.469Z,945.59
2023-04-15T04:27:57.089Z,945.6
2023-04-15T04:30:57.270Z,945.55
2023-04-15T04:33:57.393Z,945.65
2023-04-15T04:36:57.611Z,945.62
2023-04-15T04:39:57.454Z,945.69
2023-04-15T04:42:57.411Z,945.62
2023-04-15T04:45:57.629Z,945.65
2023-04-15T04:48:57.210Z,945.63
2023-04-15T04:51:57.973Z,945.65
2023-04-15T04:54:57.715Z,945.58
2023-04-15T04:57:57.237Z,945.66
2023-04-15T05:00:58.087Z,945.68
2023-04-15T05:03:57.257Z,945.78
2023-04-15T05:06:57.774Z,945.76
2023-04-15T05:09:58.252Z,945.65
2023-04-15T05:12:57.494Z,945.7
2023-04-15T05:15:57.741Z,945.76
2023-04-15T05:18:56.818Z,945.72
2023-04-15T05:21:56.972Z,945.75
2023-04-15T05:24:56.743Z,945.75
2023-04-15T05:27:57.641Z,945.85
2023-04-15T05:30:58.019Z,945.89
2023-04-15T05:33:57.676Z,945.76
2023-04-15T05:36:57.182Z,945.8
2023-04-15T05:39:57.806Z,945.83
2023-04-15T05:42:57.061Z,945.79
2023-04-15T05:45:57.306Z,945.96
2023-04-15T05:48:57.441Z,945.85
2023-04-15T05:51:57.305Z,945.84
2023-04-15T05:54:57.376Z,945.75
2023-04-15T05:57:57.461Z,945.83
2023-04-15T06:00:57.067Z,945.85
2023-04-15T06:03:58.054Z,945.83
2023-04-15T06:06:57.729Z,945.86
2023-04-15T06:09:57.076Z,945.84
2023-04-15T06:12:57.337Z,945.93
2023-04-15T06:15:57.709Z,945.95
2023-04-15T06:18:57.208Z,945.9
2023-04-15T06:21:57.854Z,945.89
2023-04-15T06:24:57.151Z,945.91
2023-04-15T06:27:57.718Z,945.97
2023-04-15T06:30:57.350Z,945.85
2023-04-15T06:33:56.997Z,945.88
2023-04-15T06:36:57.881Z,946.02
2023-04-15T06:39:56.682Z,945.96
2023-04-15T06:42:56.747Z,945.96
2023-04-15T06:45:57.757Z,946.01
2023-04-15T06:48:57.038Z,946.01
2023-04-15T06:51:57.307Z,945.96
2023-04-15T06:54:57.583Z,945.99
2023-04-15T06:57:56.767Z,945.92
2023-04-15T07:00:58.111Z,945.96
2023-04-15T07:03:57.321Z,946.08
2023-04-15T07:06:56.978Z,946.04
2023-04-15T07:09:57.840Z,946.02
2023-04-15T07:12:57.786Z,945.98
2023-04-15T07:15:57.452Z,945.97
2023-04-15T07:18:58.034Z,945.97
2023-04-15T07:21:56.958Z,945.97
2023-04-15T07:24:57.062Z,945.88
2023-04-15T07:27:57.196Z,945.93
2023-04-15T07:30:57.723Z,945.99
2023-04-15T07:33:57.323Z,945.96
2023-04-15T07:36:56.987Z,945.95
2023-04-15T07:39:56.982Z,945.98
2023-04-15T07:42:58.116Z,945.99
2023-04-15T07:45:57.819Z,945.97
2023-04-15T07:48:57.711Z,945.91
2023-04-15T07:51:57.751Z,945.92
2023-04-15T07:54:57.561Z,945.99
2023-04-15T07:57:57.252Z,946.02
2023-04-15T08:00:57.120Z,945.99
2023-04-15T08:03:57.129Z,945.89
2023-04-15T08:06:57.236Z,946.02
2023-04-15T08:09:57.230Z,946.0
2023-04-15T08:12:56.945Z,945.95
2023-04-15T08:15:56.951Z,946.03
2023-04-15T08:18:57.406Z,946.06
2023-04-15T08:21:57.078Z,946.08
2023-04-15T08:24:57.649Z,946.04
2023-04-15T08:27:56.600Z,946.1
2023-04-15T08:30:57.304Z,946.09
2023-04-15T08:33:57.473Z,946.08
2023-04-15T08:36:58.033Z,946.1
2023-04-15T08:39:57.302Z,946.2
2023-04-15T08:42:57.903Z,946.15
2023-04-15T08:45:57.473Z,946.16
2023-04-15T08:48:57.046Z,946.18
2023-04-15T08:51:57.197Z,946.22
2023-04-15T08:54:57.742Z,946.18
2023-04-15T08:57:56.978Z,946.25
2023-04-15T09:00:57.482Z,946.22
2023-04-15T09:03:57.476Z,946.24
2023-04-15T09:06:57.154Z,946.2
2023-04-15T09:09:58.141Z,946.33
2023-04-15T09:12:57.812Z,946.34
2023-04-15T09:15:57.648Z,946.19
2023-04-15T09:18:57.318Z,946.29
2023-04-15T09:21:58.929Z,946.23
2023-04-15T09:24:58.344Z,946.19
2023-04-15T09:27:57.492Z,946.33
2023-04-15T09:30:57.537Z,946.15
2023-04-15T09:33:57.553Z,946.23
2023-04-15T09:36:57.226Z,946.07
2023-04-15T09:39:57.467Z,946.14
2023-04-15T09:42:57.122Z,946.17
2023-04-15T09:45:57.841Z,946.28
2023-04-15T09:48:57.461Z,946.31
2023-04-15T09:52:05.061Z,946.3
2023-04-15T09:54:57.144Z,946.43
2023-04-15T09:57:57.445Z,946.34
2023-04-15T10:00:58.007Z,946.36
2023-04-15T10:03:57.912Z,946.32
2023-04-15T10:06:57.299Z,946.32
2023-04-15T10:09:57.618Z,946.32
2023-04-15T10:12:56.918Z,946.38
2023-04-15T10:15:57.636Z,946.29
2023-04-15T10:18:56.923Z,946.35
2023-04-15T10:21:57.596Z,946.38
2023-04-15T10:24:57.625Z,946.34
2023-04-15T10:27:57.227Z,946.27
2023-04-15T10:30:57.901Z,946.33
2023-04-15T10:33:57.443Z,946.25
2023-04-15T10:36:57.555Z,946.25
2023-04-15T10:39:58.017Z,946.39
2023-04-15T10:42:57.337Z,946.45
2023-04-15T10:45:58.000Z,946.48
2023-04-15T10:48:57.508Z,946.56
2023-04-15T10:51:57.347Z,946.59
2023-04-15T10:54:57.216Z,946.54
2023-04-15T10:57:57.386Z,946.54
2023-04-15T11:00:56.780Z,946.51
2023-04-15T11:04:26.116Z,946.58
2023-04-15T11:06:57.127Z,946.48
2023-04-15T11:09:57.501Z,946.61
2023-04-15T11:12:57.045Z,946.57
2023-04-15T11:15:57.577Z,946.54
2023-04-15T11:18:57.740Z,946.64
2023-04-15T11:21:56.734Z,946.71
2023-04-15T11:24:57.238Z,946.69
2023-04-15T11:27:56.777Z,946.7
2023-04-15T11:30:57.731Z,946.78
2023-04-15T11:33:57.672Z,946.76
2023-04-15T11:36:57.546Z,946.8
2023-04-15T11:39:56.918Z,946.81
2023-04-15T11:42:57.623Z,946.64
2023-04-15T11:45:57.911Z,946.72
2023-04-15T11:48:57.569Z,946.81
2023-04-15T11:51:57.324Z,946.89
2023-04-15T11:54:56.893Z,946.88
2023-04-15T11:58:16.592Z,946.8
2023-04-15T12:00:57.237Z,946.84
2023-04-15T12:03:57.391Z,946.83
2023-04-15T12:06:58.173Z,946.93
2023-04-15T12:09:57.431Z,946.85
2023-04-15T12:12:58.134Z,946.81
2023-04-15T12:15:57.793Z,946.91
2023-04-15T12:18:57.141Z,946.91
2023-04-15T12:22:00.059Z,946.93
2023-04-15T12:24:57.385Z,946.93
2023-04-15T12:27:57.754Z,946.97
2023-04-15T12:30:57.993Z,947.02
2023-04-15T12:33:57.515Z,947.2
2023-04-15T12:36:57.918Z,947.18
2023-04-15T12:39:57.795Z,947.24
2023-04-15T12:42:57.317Z,947.27
2023-04-15T12:45:56.950Z,947.33
2023-04-15T12:48:57.075Z,947.41
2023-04-15T12:51:57.687Z,947.53
2023-04-15T12:54:57.255Z,947.44
2023-04-15T12:57:57.477Z,947.55
2023-04-15T13:00:57.869Z,947.65
2023-04-15T13:03:57.888Z,947.65
2023-04-15T13:06:56.974Z,947.69
2023-04-15T13:09:57.663Z,947.84
2023-04-15T13:12:57.100Z,947.81
2023-04-15T13:15:57.239Z,947.84
2023-04-15T13:18:57.879Z,947.81
2023-04-15T13:21:58.110Z,947.84
2023-04-15T13:24:57.890Z,947.84
2023-04-15T13:27:57.436Z,947.8
2023-04-15T13:30:57.060Z,947.84
2023-04-15T13:33:57.690Z,947.94
2023-04-15T13:36:57.061Z,947.95
2023-04-15T13:39:57.723Z,947.81
2023-04-15T13:42:57.324Z,947.83
2023-04-15T13:45:57.983Z,947.95
2023-04-15T13:48:57.532Z,947.97
2023-04-15T13:51:57.188Z,948.01
2023-04-15T13:55:19.377Z,947.96
2023-04-15T13:57:56.932Z,948.12
2023-04-15T14:00:57.261Z,948.14
2023-04-15T14:03:57.065Z,948.18
2023-04-15T14:06:57.263Z,948.17
2023-04-15T14:09:57.828Z,948.18
2023-04-15T14:12:57.526Z,948.2
2023-04-15T14:15:57.480Z,948.21
2023-04-15T14:18:57.928Z,948.35
2023-04-15T14:21:57.535Z,948.41
2023-04-15T14:24:57.336Z,948.58
2023-04-15T14:27:58.223Z,948.39
2023-04-15T14:30:57.849Z,948.44
2023-04-15T14:33:57.146Z,948.4
2023-04-15T14:36:57.133Z,948.5
2023-04-15T14:39:58.483Z,948.51
2023-04-15T14:42:56.995Z,948.59
2023-04-15T14:45:58.091Z,948.72
2023-04-15T14:48:57.589Z,948.71
2023-04-15T14:51:56.917Z,948.71
2023-04-15T14:54:57.219Z,948.87
2023-04-15T14:57:57.623Z,948.81
2023-04-15T15:00:57.717Z,948.87
2023-04-15T15:03:57.314Z,948.94
2023-04-15T15:06:57.081Z,948.86
2023-04-15T15:09:57.837Z,948.99
2023-04-15T15:12:57.337Z,948.97
2023-04-15T15:15:57.399Z,948.97
2023-04-15T15:18:56.914Z,948.98
2023-04-15T15:21:57.426Z,949.09
2023-04-15T15:24:57.497Z,949.22
2023-04-15T15:27:57.655Z,949.18
2023-04-15T15:30:57.773Z,949.23
2023-04-15T15:33:57.323Z,949.27
2023-04-15T15:36:58.014Z,949.42
2023-04-15T15:39:57.479Z,949.32
2023-04-15T15:42:57.684Z,949.36
2023-04-15T15:45:58.126Z,949.5
2023-04-15T15:48:56.830Z,949.52
2023-04-15T15:51:57.693Z,949.54
2023-04-15T15:54:57.541Z,949.68
2023-04-15T15:57:57.410Z,949.71
2023-04-15T16:01:00.380Z,949.81
2023-04-15T16:03:56.851Z,949.88
2023-04-15T16:06:57.087Z,949.9
2023-04-15T16:09:57.558Z,949.93
2023-04-15T16:12:57.509Z,949.9
2023-04-15T16:15:57.236Z,949.92
2023-04-15T16:18:57.042Z,949.95
2023-04-15T16:21:57.740Z,950.04
2023-04-15T16:24:57.451Z,950.0
2023-04-15T16:28:05.509Z,950.0
2023-04-15T16:30:57.567Z,950.0
2023-04-15T16:33:57.742Z,950.08
2023-04-15T16:36:57.451Z,950.02
2023-04-15T16:39:57.430Z,950.14
2023-04-15T16:42:56.883Z,950.17
2023-04-15T16:45:57.157Z,950.21
2023-04-15T16:48:57.479Z,950.26
2023-04-15T16:51:57.053Z,950.3
2023-04-15T16:54:56.769Z,950.25
2023-04-15T16:58:04.666Z,950.37
2023-04-15T17:00:57.919Z,950.33
2023-04-15T17:03:57.538Z,950.42
2023-04-15T17:06:57.083Z,950.4
2023-04-15T17:09:58.137Z,950.47
2023-04-15T17:12:57.258Z,950.44
2023-04-15T17:16:03.294Z,950.5
2023-04-15T17:18:57.519Z,950.5
2023-04-15T17:21:57.662Z,950.57
2023-04-15T17:24:57.740Z,950.5
2023-04-15T17:27:57.751Z,950.48
2023-04-15T17:30:58.011Z,950.58
2023-04-15T17:34:07.855Z,950.6
2023-04-15T17:36:57.851Z,950.7
2023-04-15T17:39:57.394Z,950.77
2023-04-15T17:42:57.884Z,950.75
2023-04-15T17:45:58.553Z,950.84
2023-04-15T17:48:57.872Z,950.83
2023-04-15T17:51:57.415Z,950.9
2023-04-15T17:54:57.584Z,950.87
2023-04-15T17:57:57.486Z,951.06
2023-04-15T18:00:57.066Z,951.05
2023-04-15T18:03:57.438Z,951.03
2023-04-15T18:06:57.370Z,951.17
2023-04-15T18:09:57.492Z,951.11
2023-04-15T18:12:57.204Z,951.22
2023-04-15T18:15:57.260Z,951.26
2023-04-15T18:18:57.068Z,951.25
2023-04-15T18:21:57.700Z,951.34
2023-04-15T18:24:57.287Z,951.41
2023-04-15T18:27:57.030Z,951.4
2023-04-15T18:30:58.283Z,951.37
2023-04-15T18:33:57.314Z,951.5
2023-04-15T18:36:57.788Z,951.5
2023-04-15T18:39:57.831Z,951.53
2023-04-15T18:42:57.525Z,951.54
2023-04-15T18:45:57.198Z,951.63
2023-04-15T18:48:57.116Z,951.68
2023-04-15T18:51:57.685Z,951.69
2023-04-15T18:54:57.525Z,951.72
2023-04-15T18:58:08.314Z,951.76
2023-04-15T19:01:25.512Z,951.8
2023-04-15T19:03:57.508Z,951.88
2023-04-15T19:06:57.466Z,951.93
2023-04-15T19:09:56.966Z,951.96
2023-04-15T19:12:58.104Z,951.96
2023-04-15T19:15:57.482Z,952.03
2023-04-15T19:18:57.451Z,952.1
2023-04-15T19:21:57.201Z,952.2
2023-04-15T19:24:57.831Z,952.27
2023-04-15T19:27:58.910Z,952.2
2023-04-15T19:30:58.188Z,952.33
2023-04-15T19:33:57.517Z,952.34
2023-04-15T19:36:57.774Z,952.22
2023-04-15T19:39:57.572Z,952.29
2023-04-15T19:42:57.582Z,952.31
2023-04-15T19:45:57.910Z,952.34
2023-04-15T19:48:57.629Z,952.4
2023-04-15T19:51:57.505Z,952.35
2023-04-15T19:54:57.433Z,952.28
2023-04-15T19:57:57.121Z,952.39
2023-04-15T20:00:58.235Z,952.36
2023-04-15T20:03:56.913Z,952.4
2023-04-15T20:06:57.626Z,952.29
2023-04-15T20:09:57.246Z,952.33
2023-04-15T20:12:57.979Z,952.37
2023-04-15T20:15:57.587Z,952.46
2023-04-15T20:18:57.135Z,952.43
2023-04-15T20:21:57.624Z,952.46
2023-04-15T20:24:57.159Z,952.38
2023-04-15T20:27:58.584Z,952.5
2023-04-15T20:30:57.456Z,952.47
2023-04-15T20:33:57.306Z,952.6
2023-04-15T20:36:57.333Z,952.58
2023-04-15T20:39:57.251Z,952.66
2023-04-15T20:42:57.397Z,952.61
2023-04-15T20:46:04.220Z,952.63
2023-04-15T20:48:57.111Z,952.7
2023-04-15T20:51:57.071Z,952.65
2023-04-15T20:54:57.595Z,952.67
2023-04-15T20:57:57.014Z,952.75
2023-04-15T21:00:57.654Z,952.77
2023-04-15T21:03:57.882Z,952.77
2023-04-15T21:06:57.541Z,952.82
2023-04-15T21:09:57.869Z,952.86
2023-04-15T21:12:57.401Z,952.86
2023-04-15T21:15:57.689Z,952.89
2023-04-15T21:18:57.514Z,952.89
2023-04-15T21:21:57.466Z,952.88
2023-04-15T21:24:57.049Z,953.0
2023-04-15T21:27:57.505Z,953.05
2023-04-15T21:30:57.602Z,953.07
2023-04-15T21:33:57.053Z,953.14
2023-04-15T21:36:57.404Z,953.13
2023-04-15T21:39:58.126Z,953.15
2023-04-15T21:42:57.373Z,953.06
2023-04-15T21:46:22.953Z,953.11
2023-04-15T21:48:57.607Z,953.21
2023-04-15T21:51:58.175Z,953.21
2023-04-15T21:54:57.997Z,953.22
2023-04-15T21:57:57.738Z,953.25
2023-04-15T22:00:57.978Z,953.25
2023-04-15T22:03:57.190Z,953.29
2023-04-15T22:06:57.226Z,953.3
2023-04-15T22:09:57.864Z,953.29
2023-04-15T22:12:57.097Z,953.25
2023-04-15T22:15:56.944Z,953.18
2023-04-15T22:18:57.402Z,953.26
2023-04-15T22:21:57.318Z,953.29
2023-04-15T22:24:57.505Z,953.25
2023-04-15T22:27:56.710Z,953.33
2023-04-15T22:30:57.867Z,953.39
2023-04-15T22:33:57.688Z,953.34
2023-04-15T22:36:57.250Z,953.44
2023-04-15T22:39:57.412Z,953.51
2023-04-15T22:42:57.086Z,953.52
2023-04-15T22:45:57.344Z,953.51
2023-04-15T22:48:57.139Z,953.54
2023-04-15T22:51:57.305Z,953.57
2023-04-15T22:54:57.339Z,953.6
2023-04-15T22:57:57.463Z,953.64
2023-04-15T23:00:57.822Z,953.62
2023-04-15T23:04:05.170Z,953.53
2023-04-15T23:06:57.410Z,953.63
2023-04-15T23:09:56.897Z,953.58
2023-04-15T23:12:57.110Z,953.67
2023-04-15T23:15:56.956Z,953.57
2023-04-15T23:18:57.516Z,953.67
2023-04-15T23:21:57.577Z,953.7
2023-04-15T23:24:56.978Z,953.81
2023-04-15T23:27:56.893Z,953.8
2023-04-15T23:31:00.200Z,953.74
2023-04-15T23:33:57.593Z,953.66
2023-04-15T23:36:56.953Z,953.8
2023-04-15T23:39:57.560Z,953.79
2023-04-15T23:42:57.107Z,953.77
2023-04-15T23:45:57.374Z,953.94
2023-04-15T23:48:57.619Z,953.79
2023-04-15T23:51:56.754Z,953.83
2023-04-15T23:54:57.325Z,953.83
2023-04-15T23:57:57.013Z,953.85
